Time;durP1;ratioP1;P1;durP2;ratioP2;P2;SDS_P1;SDS_P2;PMS_P1;PMS_P2;Temp;Humidity;BMP_temperature;BMP_pressure;BME280_temperature;BME280_humidity;BME280_pressure;Samples;Min_cycle;Max_cycle;Signal;HPM_P1;HPM_P2
2023/10/29 00:03:23;;;;;;;;;;;17.40;69.80;;;;;;10232426;28;96517;-67
2023/10/29 00:08:26;;;;;;;;;;;17.40;69.80;;;;;;10231577;28;95276;-67
2023/10/29 00:13:27;;;;;;;;;;;17.40;69.80;;;;;;10230244;28;93330;-67
2023/10/29 00:18:29;;;;;;;;;;;17.40;69.80;;;;;;10242366;28;94243;-67
2023/10/29 00:23:31;;;;;;;;;;;17.40;69.80;;;;;;10229926;28;92749;-67
2023/10/29 00:28:33;;;;;;;;;;;17.30;69.90;;;;;;10218776;28;93307;-67
2023/10/29 00:33:35;;;;;;;;;;;17.30;69.90;;;;;;10221360;28;94470;-67
2023/10/29 00:38:37;;;;;;;;;;;17.30;69.90;;;;;;10236303;28;93888;-67
2023/10/29 00:43:42;;;;;;;;;;;17.30;69.90;;;;;;10245526;28;93084;-67
2023/10/29 00:48:45;;;;;;;;;;;17.30;69.90;;;;;;10236067;28;93584;-67
2023/10/29 00:53:47;;;;;;;;;;;17.30;69.90;;;;;;10243965;28;96251;-68
2023/10/29 00:58:51;;;;;;;;;;;17.30;69.90;;;;;;10244859;28;95578;-67
2023/10/29 01:03:53;;;;;;;;;;;17.30;70.00;;;;;;10233647;28;93984;-67
2023/10/29 01:08:55;;;;;;;;;;;17.30;70.00;;;;;;10246767;28;93489;-67
2023/10/29 01:13:57;;;;;;;;;;;17.30;70.00;;;;;;10230524;28;93958;-67
2023/10/29 01:18:59;;;;;;;;;;;17.30;70.00;;;;;;10252744;28;93719;-67
2023/10/29 01:24:02;;;;;;;;;;;17.30;70.10;;;;;;10241908;28;94372;-67
2023/10/29 01:29:04;;;;;;;;;;;17.30;70.00;;;;;;10215303;28;92677;-67
2023/10/29 01:34:06;;;;;;;;;;;17.20;70.00;;;;;;10210234;28;92795;-68
2023/10/29 01:39:07;;;;;;;;;;;17.20;70.00;;;;;;10236974;28;93742;-67
2023/10/29 01:44:09;;;;;;;;;;;17.20;70.00;;;;;;10237028;28;96962;-67
2023/10/29 01:49:11;;;;;;;;;;;17.20;70.00;;;;;;10240585;28;95803;-67
2023/10/29 01:54:13;;;;;;;;;;;17.20;70.10;;;;;;10237409;28;93793;-67
2023/10/29 01:59:15;;;;;;;;;;;17.20;70.10;;;;;;10233160;28;94242;-67
2023/10/29 02:04:17;;;;;;;;;;;17.20;70.10;;;;;;10595941;23;94752;-46
2023/10/29 02:09:18;;;;;;;;;;;17.10;70.10;;;;;;10177050;28;93187;-45
2023/10/29 02:14:21;;;;;;;;;;;17.20;70.10;;;;;;10188970;28;93728;-44
2023/10/29 02:19:23;;;;;;;;;;;17.20;70.00;;;;;;10188527;28;93862;-45
2023/10/29 02:24:25;;;;;;;;;;;17.20;71.10;;;;;;10195689;28;94137;-47
2023/10/29 02:29:27;;;;;;;;;;;17.10;70.00;;;;;;10196597;28;92834;-44
2023/10/29 02:34:29;;;;;;;;;;;17.20;70.20;;;;;;10198560;28;95290;-47
2023/10/29 02:39:31;;;;;;;;;;;17.10;70.10;;;;;;10185427;28;96670;-44
2023/10/29 02:44:33;;;;;;;;;;;17.20;70.10;;;;;;10191221;28;94550;-45
2023/10/29 02:49:35;;;;;;;;;;;17.10;70.10;;;;;;10177384;28;94132;-46
2023/10/29 02:54:37;;;;;;;;;;;17.10;70.10;;;;;;10182665;28;93840;-45
2023/10/29 02:59:39;;;;;;;;;;;17.20;70.10;;;;;;10182140;28;93967;-45
2023/10/29 03:04:41;;;;;;;;;;;17.20;70.10;;;;;;10191338;28;93740;-45
2023/10/29 03:09:43;;;;;;;;;;;17.20;70.10;;;;;;10191949;28;93536;-49
2023/10/29 03:14:44;;;;;;;;;;;17.20;70.10;;;;;;10187507;28;93475;-47
2023/10/29 03:19:47;;;;;;;;;;;17.20;70.00;;;;;;10180808;28;93955;-47
2023/10/29 03:24:49;;;;;;;;;;;17.20;70.00;;;;;;10176015;28;95273;-47
2023/10/29 03:29:52;;;;;;;;;;;17.20;70.00;;;;;;10180729;28;96209;-47
2023/10/29 03:34:54;;;;;;;;;;;17.20;70.00;;;;;;10180009;28;94186;-51
2023/10/29 03:39:56;;;;;;;;;;;17.20;70.00;;;;;;10174208;28;93931;-48
2023/10/29 03:44:58;;;;;;;;;;;17.20;69.90;;;;;;10183920;28;93397;-47
2023/10/29 03:50:00;;;;;;;;;;;17.20;69.90;;;;;;10186377;28;94096;-44
2023/10/29 03:55:01;;;;;;;;;;;17.20;69.80;;;;;;10191961;28;92806;-44
2023/10/29 04:00:03;;;;;;;;;;;17.20;69.80;;;;;;10198450;28;92856;-48
2023/10/29 04:05:05;;;;;;;;;;;17.20;69.70;;;;;;10198000;28;92801;-44
2023/10/29 04:10:10;;;;;;;;;;;17.20;69.80;;;;;;10202767;28;93825;-47
2023/10/29 04:15:12;;;;;;;;;;;17.20;69.70;;;;;;10203541;28;95280;-46
2023/10/29 04:20:14;;;;;;;;;;;17.20;69.70;;;;;;10205168;28;95264;-45
2023/10/29 04:25:16;;;;;;;;;;;17.20;69.70;;;;;;10204484;28;92764;-45
2023/10/29 04:30:17;;;;;;;;;;;17.20;69.70;;;;;;10191252;28;93857;-43
2023/10/29 04:35:19;;;;;;;;;;;17.20;69.70;;;;;;10196160;28;92989;-46
2023/10/29 04:40:21;;;;;;;;;;;17.20;69.80;;;;;;10200039;28;93864;-44
2023/10/29 04:45:23;;;;;;;;;;;17.20;69.80;;;;;;10181740;28;93821;-45
2023/10/29 04:50:25;;;;;;;;;;;17.20;69.80;;;;;;10217112;28;93521;-47
2023/10/29 04:55:27;;;;;;;;;;;17.10;69.70;;;;;;10205353;28;93471;-48
2023/10/29 05:00:29;;;;;;;;;;;17.10;69.90;;;;;;10188876;28;93900;-44
2023/10/29 05:05:31;;;;;;;;;;;17.10;69.80;;;;;;10176558;28;95788;-44
2023/10/29 05:10:33;;;;;;;;;;;17.10;69.80;;;;;;10182181;28;96506;-45
2023/10/29 05:15:35;;;;;;;;;;;17.10;69.70;;;;;;10200966;28;93878;-49
2023/10/29 05:20:38;;;;;;;;;;;17.10;69.80;;;;;;10192093;28;94762;-44
2023/10/29 05:25:41;;;;;;;;;;;17.10;69.80;;;;;;10187066;28;93974;-49
2023/10/29 05:30:43;;;;;;;;;;;17.10;69.80;;;;;;10197736;28;93783;-49
2023/10/29 05:35:45;;;;;;;;;;;17.10;69.80;;;;;;10201222;28;92949;-49
2023/10/29 05:40:47;;;;;;;;;;;17.10;69.80;;;;;;10170911;28;94426;-50
2023/10/29 05:45:49;;;;;;;;;;;17.10;69.80;;;;;;10192436;28;92900;-46
2023/10/29 05:50:51;;;;;;;;;;;17.00;69.80;;;;;;10180290;28;93822;-47
2023/10/29 05:55:53;;;;;;;;;;;17.00;69.80;;;;;;10198301;28;94982;-47
2023/10/29 06:00:57;;;;;;;;;;;17.10;69.90;;;;;;10192614;28;95164;-45
2023/10/29 06:05:59;;;;;;;;;;;17.00;69.70;;;;;;10183983;28;93880;-46
2023/10/29 06:11:03;;;;;;;;;;;17.10;69.80;;;;;;10165610;28;93051;-46
2023/10/29 06:16:08;;;;;;;;;;;17.10;69.80;;;;;;10188009;28;95028;-48
2023/10/29 06:21:10;;;;;;;;;;;17.10;69.70;;;;;;10195582;28;93413;-46
2023/10/29 06:26:12;;;;;;;;;;;17.10;69.70;;;;;;10193482;28;94077;-45
2023/10/29 06:31:15;;;;;;;;;;;17.10;69.70;;;;;;10202660;28;94134;-47
2023/10/29 06:36:17;;;;;;;;;;;17.00;69.70;;;;;;10180909;28;93068;-50
2023/10/29 06:41:19;;;;;;;;;;;17.00;69.80;;;;;;10185082;28;94127;-47
2023/10/29 06:46:20;;;;;;;;;;;17.00;69.70;;;;;;10187328;28;95482;-47
2023/10/29 06:51:22;;;;;;;;;;;17.00;69.80;;;;;;10169105;28;95442;-45
2023/10/29 06:56:25;;;;;;;;;;;17.00;69.80;;;;;;10194159;28;93786;-48
2023/10/29 07:01:27;;;;;;;;;;;17.00;69.90;;;;;;10190238;28;93919;-45
2023/10/29 07:06:30;;;;;;;;;;;17.00;69.80;;;;;;10194143;28;93814;-46
2023/10/29 07:11:32;;;;;;;;;;;17.00;69.80;;;;;;10186461;28;93815;-46
2023/10/29 07:16:34;;;;;;;;;;;17.00;69.80;;;;;;10192119;28;93016;-47
2023/10/29 07:21:36;;;;;;;;;;;17.00;69.80;;;;;;10196126;28;93744;-45
2023/10/29 07:26:38;;;;;;;;;;;17.00;69.80;;;;;;10193908;28;94384;-46
2023/10/29 07:31:40;;;;;;;;;;;17.00;69.80;;;;;;10175976;28;93194;-46
2023/10/29 07:36:44;;;;;;;;;;;17.00;69.80;;;;;;10175992;28;94991;-49
2023/10/29 07:41:46;;;;;;;;;;;17.00;69.80;;;;;;10186534;28;96976;-46
2023/10/29 07:46:47;;;;;;;;;;;17.00;69.80;;;;;;10179098;28;93826;-48
2023/10/29 07:51:49;;;;;;;;;;;17.00;69.70;;;;;;10198281;28;94136;-47
2023/10/29 07:56:51;;;;;;;;;;;17.00;69.70;;;;;;10200379;28;93920;-47
2023/10/29 08:01:53;;;;;;;;;;;17.00;69.70;;;;;;10188445;28;92978;-44
2023/10/29 08:06:55;;;;;;;;;;;17.00;69.60;;;;;;10174425;28;92783;-44
2023/10/29 08:11:57;;;;;;;;;;;17.00;69.60;;;;;;10201536;28;92792;-46
2023/10/29 08:16:59;;;;;;;;;;;17.10;69.60;;;;;;10183679;28;93737;-47
2023/10/29 08:22:00;;;;;;;;;;;17.10;69.60;;;;;;10196379;28;93666;-45
2023/10/29 08:27:03;;;;;;;;;;;17.10;69.60;;;;;;10188889;28;94966;-45
2023/10/29 08:32:05;;;;;;;;;;;17.00;69.50;;;;;;10197528;28;96533;-47
2023/10/29 08:37:07;;;;;;;;;;;17.10;69.50;;;;;;10192844;28;94063;-44
2023/10/29 08:42:10;;;;;;;;;;;17.10;69.50;;;;;;10206059;28;93857;-47
2023/10/29 08:47:12;;;;;;;;;;;17.10;69.50;;;;;;10175337;28;94527;-46
2023/10/29 08:52:14;;;;;;;;;;;17.10;69.50;;;;;;10183435;28;93570;-47
2023/10/29 08:57:16;;;;;;;;;;;17.10;69.50;;;;;;10174614;28;93841;-44
2023/10/29 09:02:18;;;;;;;;;;;17.10;69.40;;;;;;10189102;28;93716;-46
2023/10/29 09:07:20;;;;;;;;;;;17.10;69.40;;;;;;10187706;28;93065;-45
2023/10/29 09:12:22;;;;;;;;;;;17.20;69.60;;;;;;10193117;28;93437;-44
2023/10/29 09:17:23;;;;;;;;;;;17.20;71.30;;;;;;10183480;28;97710;-49
2023/10/29 09:22:25;;;;;;;;;;;17.30;70.10;;;;;;10191050;28;95121;-45
2023/10/29 09:27:27;;;;;;;;;;;17.30;70.10;;;;;;10195119;28;93925;-50
2023/10/29 09:32:29;;;;;;;;;;;17.40;70.20;;;;;;10192882;28;93900;-58
2023/10/29 09:37:34;;;;;;;;;;;17.40;70.30;;;;;;10172962;28;93777;-50
2023/10/29 09:42:38;;;;;;;;;;;17.40;70.60;;;;;;10199580;28;94761;-59
2023/10/29 09:47:40;;;;;;;;;;;17.50;70.70;;;;;;10192383;28;94254;-49
2023/10/29 09:52:42;;;;;;;;;;;17.60;70.90;;;;;;10189481;28;93799;-48
2023/10/29 09:57:44;;;;;;;;;;;17.80;70.50;;;;;;10183750;28;93726;-50
2023/10/29 10:02:49;;;;;;;;;;;18.00;70.10;;;;;;10182881;28;94047;-49
2023/10/29 10:07:57;;;;;;;;;;;18.20;69.70;;;;;;10189420;28;96573;-46
2023/10/29 10:12:59;;;;;;;;;;;18.40;69.30;;;;;;10199481;28;96147;-47
2023/10/29 10:18:01;;;;;;;;;;;18.60;68.90;;;;;;10203377;28;94140;-46
2023/10/29 10:23:11;;;;;;;;;;;18.70;68.50;;;;;;10190592;28;101645;-45
2023/10/29 10:28:14;;;;;;;;;;;18.70;68.40;;;;;;10198173;28;93840;-45
2023/10/29 10:33:19;;;;;;;;;;;18.70;68.40;;;;;;10173816;28;93873;-46
2023/10/29 10:38:22;;;;;;;;;;;18.70;68.40;;;;;;10166030;28;92596;-45
2023/10/29 10:43:25;;;;;;;;;;;18.70;68.40;;;;;;10182743;28;92756;-46
2023/10/29 10:48:27;;;;;;;;;;;18.60;68.40;;;;;;10183417;28;93041;-47
2023/10/29 10:53:30;;;;;;;;;;;18.60;68.50;;;;;;10191507;28;94556;-46
2023/10/29 10:58:32;;;;;;;;;;;18.50;68.60;;;;;;10185424;28;95643;-47
2023/10/29 11:03:34;;;;;;;;;;;18.50;68.70;;;;;;10187219;28;96306;-48
2023/10/29 11:08:37;;;;;;;;;;;18.40;68.80;;;;;;10182921;28;93735;-45
2023/10/29 11:13:39;;;;;;;;;;;18.40;68.90;;;;;;10187930;28;93543;-47
2023/10/29 11:18:41;;;;;;;;;;;18.40;69.20;;;;;;10186663;28;93773;-48
2023/10/29 11:23:43;;;;;;;;;;;18.40;71.00;;;;;;10194296;28;93873;-45
2023/10/29 11:28:45;;;;;;;;;;;18.40;70.40;;;;;;10188781;28;94027;-50
2023/10/29 11:33:48;;;;;;;;;;;18.40;70.10;;;;;;10189161;28;93778;-45
2023/10/29 11:38:50;;;;;;;;;;;18.40;70.00;;;;;;10193657;28;93319;-45
2023/10/29 11:44:10;;;;;;;;;;;18.40;69.90;;;;;;10194940;28;93011;-48
2023/10/29 11:49:12;;;;;;;;;;;18.50;70.00;;;;;;10175952;28;97231;-50
2023/10/29 11:54:14;;;;;;;;;;;18.50;70.00;;;;;;10182742;28;96376;-50
2023/10/29 11:59:16;;;;;;;;;;;18.60;69.80;;;;;;10198894;28;93698;-47
2023/10/29 12:04:18;;;;;;;;;;;18.60;69.60;;;;;;10197427;28;94997;-49
2023/10/29 12:09:21;;;;;;;;;;;18.60;69.50;;;;;;10192019;28;93953;-49
2023/10/29 12:14:39;;;;;;;;;;;18.60;69.40;;;;;;10198395;28;93986;-47
2023/10/29 12:19:44;;;;;;;;;;;18.60;69.50;;;;;;10181474;28;93907;-48
2023/10/29 12:24:46;;;;;;;;;;;18.60;69.50;;;;;;10207857;28;92721;-49
2023/10/29 12:29:49;;;;;;;;;;;18.70;69.50;;;;;;10192639;28;93157;-50
2023/10/29 12:34:56;;;;;;;;;;;18.60;69.40;;;;;;10177825;28;93818;-49
2023/10/29 12:39:59;;;;;;;;;;;18.60;69.40;;;;;;10204604;28;95330;-46
2023/10/29 12:45:02;;;;;;;;;;;18.60;69.50;;;;;;10194633;28;96619;-47
2023/10/29 12:50:04;;;;;;;;;;;18.60;69.40;;;;;;10186190;28;93832;-46
2023/10/29 12:55:09;;;;;;;;;;;18.60;69.40;;;;;;10180038;28;92709;-44
2023/10/29 13:00:12;;;;;;;;;;;18.60;69.50;;;;;;10181540;28;93151;-46
2023/10/29 13:05:14;;;;;;;;;;;18.60;69.60;;;;;;10195819;28;95499;-47
2023/10/29 13:10:16;;;;;;;;;;;18.60;69.60;;;;;;10192553;28;93916;-45
2023/10/29 13:15:18;;;;;;;;;;;18.60;69.60;;;;;;10202051;28;93688;-45
2023/10/29 13:20:20;;;;;;;;;;;18.60;69.60;;;;;;10203348;28;93245;-44
2023/10/29 13:25:22;;;;;;;;;;;18.60;69.70;;;;;;10199442;28;93955;-45
2023/10/29 13:30:25;;;;;;;;;;;18.60;69.80;;;;;;10192863;28;95913;-44
2023/10/29 13:35:27;;;;;;;;;;;18.60;69.80;;;;;;10191801;28;95160;-46
2023/10/29 13:40:28;;;;;;;;;;;18.60;69.80;;;;;;10188249;28;93032;-46
2023/10/29 13:45:31;;;;;;;;;;;18.60;69.80;;;;;;10173312;28;94026;-44
2023/10/29 13:50:36;;;;;;;;;;;18.60;69.80;;;;;;10190730;28;94286;-45
2023/10/29 13:55:38;;;;;;;;;;;18.60;70.00;;;;;;10199000;28;93840;-46
2023/10/29 14:00:40;;;;;;;;;;;18.60;69.80;;;;;;10189033;28;94340;-46
2023/10/29 14:05:43;;;;;;;;;;;18.50;69.60;;;;;;10192340;28;94127;-44
2023/10/29 14:10:45;;;;;;;;;;;18.50;69.60;;;;;;10191661;28;93120;-44
2023/10/29 14:15:47;;;;;;;;;;;18.50;69.50;;;;;;10197604;28;93931;-47
2023/10/29 14:20:50;;;;;;;;;;;18.50;69.50;;;;;;10202689;28;95380;-44
2023/10/29 14:25:51;;;;;;;;;;;18.50;69.60;;;;;;10198455;28;96304;-49
2023/10/29 14:30:53;;;;;;;;;;;18.50;69.60;;;;;;10189790;28;93829;-45
2023/10/29 14:35:56;;;;;;;;;;;18.50;69.60;;;;;;10185614;28;93816;-45
2023/10/29 14:40:59;;;;;;;;;;;18.50;71.80;;;;;;10203519;28;93617;-46
2023/10/29 14:46:02;;;;;;;;;;;18.60;72.00;;;;;;10186414;28;96242;-45
2023/10/29 14:51:04;;;;;;;;;;;18.60;71.50;;;;;;10173338;28;93829;-43
2023/10/29 14:56:07;;;;;;;;;;;18.60;71.50;;;;;;10181801;28;93737;-49
2023/10/29 15:01:09;;;;;;;;;;;18.70;71.50;;;;;;10190169;28;94617;-48
2023/10/29 15:06:11;;;;;;;;;;;18.70;71.60;;;;;;10176186;28;93180;-50
2023/10/29 15:11:15;;;;;;;;;;;18.70;71.60;;;;;;10192920;28;96077;-47
2023/10/29 15:16:36;;;;;;;;;;;18.60;71.70;;;;;;10188991;28;95759;-48
2023/10/29 15:21:38;;;;;;;;;;;18.60;71.90;;;;;;10185244;28;93948;-47
2023/10/29 15:26:40;;;;;;;;;;;18.70;72.00;;;;;;10193476;28;93785;-46
2023/10/29 15:31:42;;;;;;;;;;;18.70;72.00;;;;;;10188236;28;93534;-46
2023/10/29 15:36:44;;;;;;;;;;;18.70;72.00;;;;;;10189393;28;93450;-46
2023/10/29 15:41:46;;;;;;;;;;;18.70;71.90;;;;;;10198073;28;93884;-44
2023/10/29 15:46:47;;;;;;;;;;;18.70;72.00;;;;;;10193839;28;93913;-43
2023/10/29 15:51:50;;;;;;;;;;;18.60;72.10;;;;;;10193405;28;92817;-46
2023/10/29 15:56:52;;;;;;;;;;;18.60;72.20;;;;;;10198722;28;93096;-48
2023/10/29 16:01:54;;;;;;;;;;;18.70;72.40;;;;;;10173517;28;95443;-45
2023/10/29 16:07:00;;;;;;;;;;;18.70;72.40;;;;;;10175790;28;95487;-45
2023/10/29 16:12:07;;;;;;;;;;;18.70;72.30;;;;;;10181225;28;93922;-45
2023/10/29 16:17:09;;;;;;;;;;;18.70;72.20;;;;;;10195874;28;93469;-44
2023/10/29 16:22:11;;;;;;;;;;;18.70;72.20;;;;;;10178137;28;93828;-45
2023/10/29 16:27:13;;;;;;;;;;;18.70;72.70;;;;;;10189169;28;94480;-49
2023/10/29 16:32:15;;;;;;;;;;;18.70;73.50;;;;;;10182586;28;93051;-51
2023/10/29 16:37:17;;;;;;;;;;;18.70;73.20;;;;;;10199379;28;94028;-51
2023/10/29 16:42:19;;;;;;;;;;;18.60;73.10;;;;;;10184899;28;92615;-52
2023/10/29 16:47:21;;;;;;;;;;;18.60;73.00;;;;;;10187153;28;94037;-48
2023/10/29 16:52:22;;;;;;;;;;;18.60;73.10;;;;;;10190145;28;95484;-44
2023/10/29 16:57:24;;;;;;;;;;;18.60;73.30;;;;;;10191252;28;96307;-46
2023/10/29 17:02:26;;;;;;;;;;;18.60;73.60;;;;;;10179383;28;95120;-44
2023/10/29 17:07:31;;;;;;;;;;;18.50;73.40;;;;;;10167936;28;92922;-45
2023/10/29 17:12:32;;;;;;;;;;;18.60;73.40;;;;;;10200536;28;93455;-45
2023/10/29 17:17:34;;;;;;;;;;;18.60;73.20;;;;;;10191567;28;93457;-48
2023/10/29 17:22:36;;;;;;;;;;;18.60;73.30;;;;;;10195601;28;94421;-44
2023/10/29 17:27:38;;;;;;;;;;;18.70;73.50;;;;;;10193758;28;93936;-49
2023/10/29 17:32:40;;;;;;;;;;;18.80;74.20;;;;;;10191704;28;94040;-48
2023/10/29 17:37:42;;;;;;;;;;;18.80;72.80;;;;;;10192380;28;95060;-50
2023/10/29 17:42:44;;;;;;;;;;;18.80;73.00;;;;;;10189577;28;96359;-51
2023/10/29 17:47:48;;;;;;;;;;;19.00;77.60;;;;;;10196847;28;96174;-48
2023/10/29 17:52:50;;;;;;;;;;;19.30;79.80;;;;;;10180466;28;94751;-50
2023/10/29 17:57:52;;;;;;;;;;;19.50;77.40;;;;;;10195937;28;93258;-47
2023/10/29 18:02:54;;;;;;;;;;;19.60;76.50;;;;;;10192479;28;93038;-49
2023/10/29 18:07:56;;;;;;;;;;;19.70;76.50;;;;;;10181753;28;94185;-46
2023/10/29 18:12:58;;;;;;;;;;;19.60;76.20;;;;;;10203058;28;93120;-50
2023/10/29 18:17:59;;;;;;;;;;;19.60;76.00;;;;;;10185280;28;93786;-44
2023/10/29 18:23:02;;;;;;;;;;;19.60;75.80;;;;;;10175497;28;94595;-45
2023/10/29 18:28:06;;;;;;;;;;;19.50;75.70;;;;;;10179560;28;94468;-49
2023/10/29 18:33:08;;;;;;;;;;;19.50;75.50;;;;;;10202664;28;95241;-44
2023/10/29 18:38:10;;;;;;;;;;;19.40;75.40;;;;;;10192959;28;95128;-48
2023/10/29 18:43:16;;;;;;;;;;;19.30;75.30;;;;;;10188182;28;93303;-47
2023/10/29 18:48:19;;;;;;;;;;;19.30;75.20;;;;;;10184049;28;93107;-47
2023/10/29 18:53:21;;;;;;;;;;;19.20;75.10;;;;;;10188641;28;93961;-67
2023/10/29 18:58:23;;;;;;;;;;;19.20;75.50;;;;;;10181237;28;93663;-50
2023/10/29 19:03:25;;;;;;;;;;;19.20;75.70;;;;;;10163089;28;94072;-45
2023/10/29 19:08:28;;;;;;;;;;;19.10;75.60;;;;;;10190451;28;92367;-45
2023/10/29 19:13:29;;;;;;;;;;;19.10;75.30;;;;;;10177397;28;93109;-45
2023/10/29 19:18:32;;;;;;;;;;;19.10;75.20;;;;;;10174697;28;93953;-47
2023/10/29 19:23:37;;;;;;;;;;;19.10;75.20;;;;;;10175462;28;95538;-45
2023/10/29 19:28:38;;;;;;;;;;;19.00;75.10;;;;;;10167750;28;93818;-46
2023/10/29 19:33:40;;;;;;;;;;;19.00;75.10;;;;;;10166127;28;95328;-57
2023/10/29 19:38:42;;;;;;;;;;;19.00;75.30;;;;;;10183214;28;94332;-45
2023/10/29 19:43:44;;;;;;;;;;;19.00;75.30;;;;;;10188843;28;97711;-45
2023/10/29 19:48:45;;;;;;;;;;;19.00;75.20;;;;;;10186129;28;93718;-50
2023/10/29 19:53:47;;;;;;;;;;;19.00;75.90;;;;;;10186930;28;93927;-45
2023/10/29 19:58:49;;;;;;;;;;;19.10;75.40;;;;;;10191408;28;93278;-50
2023/10/29 20:03:51;;;;;;;;;;;19.10;75.40;;;;;;10192001;28;93818;-47
2023/10/29 20:08:53;;;;;;;;;;;19.10;75.10;;;;;;10186555;28;92818;-46
2023/10/29 20:13:56;;;;;;;;;;;19.10;75.10;;;;;;10182319;28;95242;-46
2023/10/29 20:18:57;;;;;;;;;;;19.20;75.00;;;;;;10187855;28;96277;-48
2023/10/29 20:23:59;;;;;;;;;;;19.20;75.00;;;;;;10179366;28;93759;-46
2023/10/29 20:29:01;;;;;;;;;;;19.20;74.90;;;;;;10201672;28;93993;-48
2023/10/29 20:34:03;;;;;;;;;;;19.10;74.70;;;;;;10195893;28;93785;-48
2023/10/29 20:39:05;;;;;;;;;;;19.10;74.80;;;;;;10190987;28;94005;-47
2023/10/29 20:44:09;;;;;;;;;;;19.10;74.80;;;;;;10191421;28;93796;-60
2023/10/29 20:49:15;;;;;;;;;;;19.10;74.80;;;;;;10198941;28;95466;-49
2023/10/29 20:54:17;;;;;;;;;;;19.10;74.80;;;;;;10194469;28;95372;-54
2023/10/29 20:59:21;;;;;;;;;;;19.00;74.70;;;;;;10202420;28;93479;-47
2023/10/29 21:04:23;;;;;;;;;;;19.00;75.10;;;;;;10177570;28;95167;-49
2023/10/29 21:09:25;;;;;;;;;;;19.00;74.80;;;;;;10196347;28;96162;-50
2023/10/29 21:14:27;;;;;;;;;;;19.00;75.10;;;;;;10190070;28;94556;-45
2023/10/29 21:19:30;;;;;;;;;;;19.00;74.90;;;;;;10196755;28;92811;-44
2023/10/29 21:24:31;;;;;;;;;;;19.10;74.90;;;;;;10193416;28;95011;-48
2023/10/29 21:29:33;;;;;;;;;;;19.10;74.90;;;;;;10181616;28;93288;-46
2023/10/29 21:34:35;;;;;;;;;;;19.10;74.90;;;;;;10193532;28;93798;-45
2023/10/29 21:39:37;;;;;;;;;;;19.10;75.80;;;;;;10193254;28;94166;-49
2023/10/29 21:44:41;;;;;;;;;;;19.10;74.90;;;;;;10184823;28;93003;-46
2023/10/29 21:49:45;;;;;;;;;;;19.10;74.70;;;;;;10178300;28;94074;-45
2023/10/29 21:54:49;;;;;;;;;;;19.10;74.50;;;;;;10179220;28;95473;-45
2023/10/29 21:59:51;;;;;;;;;;;19.20;74.50;;;;;;10201733;28;95538;-48
2023/10/29 22:04:53;;;;;;;;;;;19.20;74.20;;;;;;10169696;28;93656;-47
2023/10/29 22:09:57;;;;;;;;;;;19.20;74.00;;;;;;10177258;28;93786;-47
2023/10/29 22:14:59;;;;;;;;;;;19.20;73.90;;;;;;10194591;28;93099;-46
2023/10/29 22:20:01;;;;;;;;;;;19.10;73.80;;;;;;10198533;28;93873;-49
2023/10/29 22:25:03;;;;;;;;;;;19.10;73.70;;;;;;10202761;28;93425;-45
2023/10/29 22:30:05;;;;;;;;;;;19.20;73.50;;;;;;10195460;28;94171;-45
2023/10/29 22:35:09;;;;;;;;;;;19.20;73.30;;;;;;10193069;28;94619;-47
2023/10/29 22:40:11;;;;;;;;;;;19.20;73.20;;;;;;10180090;28;93835;-44
2023/10/29 22:45:13;;;;;;;;;;;19.20;73.10;;;;;;10185766;28;95550;-45
2023/10/29 22:50:15;;;;;;;;;;;19.10;73.00;;;;;;10194577;28;96274;-48
2023/10/29 22:55:17;;;;;;;;;;;19.10;73.00;;;;;;10179151;28;93549;-46
2023/10/29 23:00:21;;;;;;;;;;;19.10;73.00;;;;;;10195896;28;93707;-48
2023/10/29 23:05:22;;;;;;;;;;;19.00;72.90;;;;;;10192715;28;94083;-53
2023/10/29 23:10:24;;;;;;;;;;;18.90;73.00;;;;;;10190387;28;93165;-51
2023/10/29 23:15:26;;;;;;;;;;;18.90;73.00;;;;;;10183241;28;93803;-47
2023/10/29 23:20:28;;;;;;;;;;;18.90;73.00;;;;;;10177484;28;93529;-45
2023/10/29 23:25:29;;;;;;;;;;;18.80;72.90;;;;;;10182417;28;93311;-45
2023/10/29 23:30:31;;;;;;;;;;;18.80;73.90;;;;;;10177308;28;93315;-45
2023/10/29 23:35:34;;;;;;;;;;;18.80;72.90;;;;;;10196641;28;95659;-46
2023/10/29 23:40:36;;;;;;;;;;;18.70;73.00;;;;;;10201285;28;96472;-46
2023/10/29 23:45:38;;;;;;;;;;;18.70;73.00;;;;;;10186797;28;93108;-49
2023/10/29 23:50:40;;;;;;;;;;;18.60;73.00;;;;;;10181918;28;92885;-49
2023/10/29 23:55:42;;;;;;;;;;;18.60;73.00;;;;;;10203623;28;92962;-48
